Time;durP1;ratioP1;P1;durP2;ratioP2;P2;SDS_P1;SDS_P2;PMS_P1;PMS_P2;Temp;Humidity;BMP_temperature;BMP_pressure;BME280_temperature;BME280_humidity;BME280_pressure;Samples;Min_cycle;Max_cycle;Signal;HPM_P1;HPM_P2
2023/11/10 00:00:26;;;;;;;3.40;1.10;;;9.10;99.90;;;;;;4223961;28;20590;-84
2023/11/10 00:02:30;;;;;;;2.93;1.17;;;9.00;99.90;;;;;;4224228;28;20621;-84
2023/11/10 00:04:32;;;;;;;4.87;0.90;;;9.00;99.90;;;;;;4221157;28;20231;-84
2023/11/10 00:06:35;;;;;;;3.20;1.10;;;9.00;99.90;;;;;;4216729;28;20209;-84
2023/11/10 00:08:37;;;;;;;2.83;0.80;;;9.00;99.90;;;;;;4227060;28;20201;-84
2023/11/10 00:10:39;;;;;;;3.80;1.00;;;9.00;99.90;;;;;;4222913;28;20210;-84
2023/11/10 00:12:41;;;;;;;2.40;0.90;;;9.00;99.90;;;;;;4223113;28;20194;-84
2023/11/10 00:14:43;;;;;;;4.03;1.00;;;8.90;99.90;;;;;;4224549;28;20225;-84
2023/11/10 00:16:45;;;;;;;3.97;1.10;;;8.90;99.90;;;;;;4228292;28;20218;-84
2023/11/10 00:18:49;;;;;;;3.10;0.90;;;8.90;99.90;;;;;;4218146;28;20229;-84
2023/11/10 00:20:50;;;;;;;3.03;0.87;;;8.90;99.90;;;;;;4222857;28;20264;-84
2023/11/10 00:22:52;;;;;;;3.07;0.80;;;8.90;99.90;;;;;;4225883;28;20546;-83
2023/11/10 00:24:55;;;;;;;2.33;0.80;;;8.90;99.90;;;;;;4226457;28;20590;-84
2023/11/10 00:26:58;;;;;;;2.93;0.87;;;8.80;99.90;;;;;;4220883;28;20298;-84
2023/11/10 00:29:01;;;;;;;4.77;1.10;;;8.80;99.90;;;;;;4227919;28;20632;-83
2023/11/10 00:31:03;;;;;;;2.57;0.70;;;8.80;99.90;;;;;;4221383;28;20204;-84
2023/11/10 00:33:05;;;;;;;5.90;1.53;;;8.80;99.90;;;;;;4228980;28;20284;-84
2023/11/10 00:35:09;;;;;;;10.87;1.10;;;8.90;99.90;;;;;;4220835;28;20302;-84
2023/11/10 00:37:14;;;;;;;3.43;1.20;;;8.90;99.90;;;;;;4227567;28;20678;-84
2023/11/10 00:39:19;;;;;;;3.50;1.00;;;8.90;99.90;;;;;;4227667;28;20263;-84
2023/11/10 00:41:24;;;;;;;3.97;1.00;;;8.90;99.90;;;;;;4228079;28;20274;-84
2023/11/10 00:43:26;;;;;;;1.30;0.77;;;9.00;99.90;;;;;;4226782;28;20297;-84
2023/11/10 00:45:28;;;;;;;6.60;1.00;;;8.90;99.90;;;;;;4229407;28;20690;-83
2023/11/10 00:47:30;;;;;;;5.77;1.10;;;8.90;99.90;;;;;;4227386;28;20203;-83
2023/11/10 00:49:34;;;;;;;3.13;0.90;;;9.00;99.90;;;;;;4228264;28;20234;-84
2023/11/10 00:51:36;;;;;;;2.33;0.83;;;9.00;99.90;;;;;;4228222;28;20214;-84
2023/11/10 00:53:38;;;;;;;1.93;0.90;;;8.90;99.90;;;;;;4225685;28;20202;-84
2023/11/10 00:55:40;;;;;;;1.97;1.07;;;9.00;99.90;;;;;;4227815;28;20219;-84
2023/11/10 00:57:43;;;;;;;5.27;1.20;;;8.90;99.90;;;;;;4229159;28;20213;-84
2023/11/10 00:59:45;;;;;;;1.77;0.97;;;8.90;99.90;;;;;;4224940;28;20313;-84
2023/11/10 01:01:47;;;;;;;5.00;1.00;;;9.30;99.90;;;;;;4223861;28;20582;-84
2023/11/10 01:03:49;;;;;;;4.63;1.03;;;9.00;99.90;;;;;;4226362;28;20214;-84
2023/11/10 01:05:51;;;;;;;3.60;1.00;;;9.00;99.90;;;;;;4227386;28;20597;-84
2023/11/10 01:07:55;;;;;;;0.83;0.70;;;9.00;99.90;;;;;;4222539;28;20858;-83
2023/11/10 01:09:57;;;;;;;1.90;1.00;;;9.00;99.90;;;;;;4227729;28;20211;-84
2023/11/10 01:11:59;;;;;;;2.13;1.00;;;9.00;99.90;;;;;;4220321;28;20298;-84
2023/11/10 01:14:04;;;;;;;3.47;1.17;;;9.00;99.90;;;;;;4224192;28;20270;-84
2023/11/10 01:16:07;;;;;;;2.23;1.10;;;9.10;99.90;;;;;;4225527;28;20655;-84
2023/11/10 01:18:09;;;;;;;2.60;1.00;;;9.10;99.90;;;;;;4229201;28;20293;-84
2023/11/10 01:20:12;;;;;;;3.80;1.67;;;9.20;99.90;;;;;;4227191;28;20211;-84
2023/11/10 01:22:14;;;;;;;1.97;1.10;;;9.10;99.90;;;;;;4226143;28;20214;-84
2023/11/10 01:24:17;;;;;;;3.87;1.00;;;9.20;99.90;;;;;;4223246;28;20276;-84
2023/11/10 01:26:19;;;;;;;3.97;0.97;;;9.20;99.90;;;;;;4226961;28;20810;-84
2023/11/10 01:28:21;;;;;;;4.07;1.20;;;9.10;99.90;;;;;;4226252;28;20207;-84
2023/11/10 01:30:23;;;;;;;2.43;1.07;;;9.20;99.90;;;;;;4221441;28;20202;-85
2023/11/10 01:32:25;;;;;;;3.20;1.50;;;9.20;99.90;;;;;;4223784;28;20197;-85
2023/11/10 01:34:27;;;;;;;3.53;1.30;;;9.10;99.90;;;;;;4222279;28;20239;-84
2023/11/10 01:36:30;;;;;;;1.57;0.93;;;9.10;99.90;;;;;;4221061;28;20262;-84
2023/11/10 01:38:31;;;;;;;2.60;1.07;;;9.10;99.90;;;;;;4226944;28;20200;-84
2023/11/10 01:40:42;;;;;;;1.87;1.10;;;9.20;99.90;;;;;;4224908;28;20214;-84
2023/11/10 01:42:44;;;;;;;3.37;1.10;;;8.80;99.90;;;;;;4226066;28;20226;-84
2023/11/10 01:44:46;;;;;;;2.87;1.20;;;9.00;99.90;;;;;;4225663;28;20228;-83
2023/11/10 01:46:49;;;;;;;1.77;0.93;;;9.00;99.90;;;;;;4224120;28;20204;-84
2023/11/10 01:48:51;;;;;;;2.57;1.10;;;9.00;99.90;;;;;;4230807;28;20205;-84
2023/11/10 01:50:54;;;;;;;2.60;0.93;;;8.90;99.90;;;;;;4223320;28;20203;-84
2023/11/10 01:52:58;;;;;;;2.33;0.90;;;8.90;99.90;;;;;;4228980;28;20287;-84
2023/11/10 01:55:00;;;;;;;3.97;1.20;;;8.90;99.90;;;;;;4227316;28;20251;-84
2023/11/10 01:57:05;;;;;;;4.00;1.10;;;8.80;99.90;;;;;;4228419;28;20265;-84
2023/11/10 01:59:10;;;;;;;2.17;1.00;;;8.80;99.90;;;;;;4227560;28;20646;-84
2023/11/10 02:01:12;;;;;;;1.50;0.90;;;8.50;99.90;;;;;;4225918;28;20199;-84
2023/11/10 02:03:14;;;;;;;4.10;0.90;;;8.90;99.90;;;;;;4224213;28;20200;-84
2023/11/10 02:05:17;;;;;;;2.07;1.00;;;8.90;99.90;;;;;;4226224;28;20268;-84
2023/11/10 02:07:21;;;;;;;1.83;0.90;;;8.80;99.90;;;;;;4232760;28;20241;-84
2023/11/10 02:09:24;;;;;;;1.13;1.00;;;8.80;99.90;;;;;;4224508;28;20282;-83
2023/11/10 02:11:28;;;;;;;2.30;1.00;;;8.80;99.90;;;;;;4230415;28;20207;-84
2023/11/10 02:13:32;;;;;;;3.20;1.03;;;8.70;99.90;;;;;;4224266;28;20646;-84
2023/11/10 02:15:34;;;;;;;3.10;1.27;;;8.70;99.90;;;;;;4225718;28;20225;-84
2023/11/10 02:17:37;;;;;;;3.27;0.90;;;8.60;99.90;;;;;;4230511;28;20300;-84
2023/11/10 02:19:39;;;;;;;1.67;1.00;;;8.60;99.90;;;;;;4225127;28;20222;-84
2023/11/10 02:21:40;;;;;;;4.20;1.30;;;8.60;99.90;;;;;;4225689;28;20238;-84
2023/11/10 02:23:43;;;;;;;2.83;1.00;;;8.60;99.90;;;;;;4228924;28;20842;-83
2023/11/10 02:25:50;;;;;;;1.63;1.07;;;8.60;99.90;;;;;;4228839;28;20234;-83
2023/11/10 02:27:52;;;;;;;4.50;1.67;;;8.60;99.90;;;;;;4222020;28;20198;-84
2023/11/10 02:29:53;;;;;;;1.27;0.93;;;8.60;99.90;;;;;;4225432;28;20256;-84
2023/11/10 02:31:55;;;;;;;1.57;0.90;;;8.60;99.90;;;;;;4235565;28;20198;-84
2023/11/10 02:33:57;;;;;;;2.57;0.70;;;8.60;99.90;;;;;;4235702;28;20295;-84
2023/11/10 02:35:59;;;;;;;2.73;0.93;;;8.60;99.90;;;;;;4236433;28;20327;-84
2023/11/10 02:38:01;;;;;;;1.50;0.80;;;8.60;99.90;;;;;;4238589;28;20234;-83
2023/11/10 02:40:06;;;;;;;2.63;1.07;;;8.60;99.90;;;;;;4237223;28;20228;-84
2023/11/10 02:42:09;;;;;;;1.77;0.80;;;8.60;99.90;;;;;;4237852;28;20653;-84
2023/11/10 02:44:11;;;;;;;2.37;1.00;;;8.70;99.90;;;;;;4243288;27;20218;-84
2023/11/10 02:46:13;;;;;;;0.80;0.80;;;8.70;99.90;;;;;;4238737;28;20225;-84
2023/11/10 02:48:16;;;;;;;1.10;0.80;;;8.70;99.90;;;;;;4240105;28;20205;-84
2023/11/10 02:50:18;;;;;;;3.63;1.13;;;8.70;99.90;;;;;;4245118;28;20209;-84
2023/11/10 02:52:22;;;;;;;1.77;0.80;;;8.70;99.90;;;;;;4243243;27;20212;-85
2023/11/10 02:54:24;;;;;;;2.93;0.80;;;8.80;99.90;;;;;;4234635;28;20205;-84
2023/11/10 02:56:26;;;;;;;2.67;1.10;;;8.70;99.90;;;;;;4235545;28;20198;-84
2023/11/10 02:58:31;;;;;;;1.23;0.80;;;8.70;99.90;;;;;;4232575;28;20218;-85
2023/11/10 03:00:33;;;;;;;3.50;0.83;;;8.70;99.90;;;;;;4230446;28;20204;-85
2023/11/10 03:02:37;;;;;;;1.57;0.80;;;8.50;99.90;;;;;;4229283;28;20210;-85
2023/11/10 03:04:40;;;;;;;1.57;0.60;;;8.70;99.90;;;;;;4223123;28;20226;-85
2023/11/10 03:06:42;;;;;;;1.93;0.60;;;8.70;99.90;;;;;;4222811;28;20245;-84
2023/11/10 03:08:44;;;;;;;2.30;0.70;;;8.70;99.90;;;;;;4226112;28;20242;-84
2023/11/10 03:10:46;;;;;;;1.60;0.63;;;8.60;99.90;;;;;;4224458;28;20206;-84
2023/11/10 03:12:48;;;;;;;1.53;0.60;;;8.60;99.90;;;;;;4226406;27;20216;-85
2023/11/10 03:14:52;;;;;;;1.27;0.67;;;8.60;99.90;;;;;;4231435;28;20225;-84
2023/11/10 03:16:54;;;;;;;1.17;0.80;;;8.60;99.90;;;;;;4226985;28;20241;-84
2023/11/10 03:18:56;;;;;;;2.87;1.10;;;8.60;99.90;;;;;;4223762;28;20276;-85
2023/11/10 03:21:00;;;;;;;2.07;0.80;;;8.60;99.90;;;;;;4223555;28;20216;-84
2023/11/10 03:23:02;;;;;;;1.20;0.60;;;8.60;99.90;;;;;;4226031;28;20198;-84
2023/11/10 03:25:03;;;;;;;2.37;0.70;;;8.60;99.90;;;;;;4228226;28;20732;-86
2023/11/10 03:27:05;;;;;;;1.17;0.67;;;8.70;99.90;;;;;;4225710;28;20279;-84
2023/11/10 03:29:08;;;;;;;0.90;0.70;;;8.70;99.90;;;;;;4225521;28;20738;-84
2023/11/10 03:31:10;;;;;;;2.50;0.70;;;8.70;99.90;;;;;;4227953;28;20224;-84
2023/11/10 03:33:12;;;;;;;2.63;0.90;;;8.70;99.90;;;;;;4225094;28;20238;-85
2023/11/10 03:35:16;;;;;;;0.90;0.60;;;8.50;99.90;;;;;;4221341;28;20223;-84
2023/11/10 03:37:19;;;;;;;2.10;1.00;;;8.70;99.90;;;;;;4220988;28;20203;-84
2023/11/10 03:39:21;;;;;;;1.20;0.83;;;8.70;99.90;;;;;;4220849;28;20697;-84
2023/11/10 03:41:23;;;;;;;1.87;0.80;;;8.70;99.90;;;;;;4223655;28;20216;-84
2023/11/10 03:43:25;;;;;;;0.70;0.60;;;8.70;99.90;;;;;;4224342;28;20195;-83
2023/11/10 03:45:27;;;;;;;1.77;0.77;;;8.70;99.90;;;;;;4223280;28;20284;-84
2023/11/10 03:47:30;;;;;;;1.40;0.80;;;8.70;99.90;;;;;;4227087;28;20293;-84
2023/11/10 03:49:33;;;;;;;1.20;0.80;;;8.60;99.90;;;;;;4220741;28;20204;-84
2023/11/10 03:51:35;;;;;;;3.43;0.70;;;8.90;99.90;;;;;;4222756;28;20285;-84
2023/11/10 03:53:37;;;;;;;3.70;0.80;;;8.60;99.90;;;;;;4222542;28;20276;-84
2023/11/10 03:55:39;;;;;;;1.80;0.80;;;8.60;99.90;;;;;;4220126;28;20219;-84
2023/11/10 03:57:41;;;;;;;5.53;0.80;;;8.60;99.90;;;;;;4219937;28;20666;-84
2023/11/10 03:59:43;;;;;;;1.77;0.73;;;8.70;99.90;;;;;;4223606;28;20291;-85
2023/11/10 04:01:45;;;;;;;1.07;0.70;;;8.60;99.90;;;;;;4222848;28;20220;-85
2023/11/10 04:03:49;;;;;;;1.13;0.63;;;8.60;99.90;;;;;;4223731;28;20727;-84
2023/11/10 04:05:51;;;;;;;0.93;0.70;;;9.00;99.90;;;;;;4219486;28;20296;-84
2023/11/10 04:07:54;;;;;;;0.87;0.70;;;8.30;99.90;;;;;;4216659;28;20207;-84
2023/11/10 04:09:56;;;;;;;1.00;0.77;;;8.60;99.90;;;;;;4221985;28;20587;-84
2023/11/10 04:11:57;;;;;;;0.90;0.70;;;8.60;99.90;;;;;;4220062;28;20297;-85
2023/11/10 04:13:59;;;;;;;0.80;0.70;;;8.60;99.90;;;;;;4222624;28;20209;-84
2023/11/10 04:16:01;;;;;;;1.67;0.67;;;8.60;99.90;;;;;;4223140;28;20240;-84
2023/11/10 04:18:04;;;;;;;0.60;0.60;;;8.60;99.90;;;;;;4217770;28;20268;-84
2023/11/10 04:20:10;;;;;;;2.10;0.70;;;8.60;99.90;;;;;;4219361;28;20206;-84
2023/11/10 04:22:12;;;;;;;3.03;0.73;;;8.60;99.90;;;;;;4215048;28;20196;-84
2023/11/10 04:24:14;;;;;;;1.20;0.60;;;8.60;99.90;;;;;;4219413;28;20307;-84
2023/11/10 04:26:17;;;;;;;1.10;0.60;;;8.60;99.90;;;;;;4219342;28;20201;-84
2023/11/10 04:28:19;;;;;;;2.50;0.90;;;8.60;99.90;;;;;;4215967;28;20255;-85
2023/11/10 04:30:22;;;;;;;1.73;0.63;;;8.60;99.90;;;;;;4221595;28;20207;-84
2023/11/10 04:32:25;;;;;;;2.47;0.60;;;8.60;99.90;;;;;;4226616;28;20230;-84
2023/11/10 04:34:27;;;;;;;3.07;0.90;;;8.60;99.90;;;;;;4219679;28;20246;-84
2023/11/10 04:36:32;;;;;;;1.50;0.90;;;8.60;99.90;;;;;;4220300;28;20209;-84
2023/11/10 04:38:35;;;;;;;1.97;0.90;;;8.60;99.90;;;;;;4220990;28;20255;-84
2023/11/10 04:40:37;;;;;;;3.63;0.80;;;8.60;99.90;;;;;;4218555;28;20241;-84
2023/11/10 04:42:38;;;;;;;1.30;0.80;;;8.60;99.90;;;;;;4219537;28;20202;-84
2023/11/10 04:44:40;;;;;;;2.27;0.73;;;8.60;99.90;;;;;;4224733;28;20256;-83
2023/11/10 04:46:42;;;;;;;1.73;0.80;;;8.70;99.90;;;;;;4222952;28;20222;-84
2023/11/10 04:48:44;;;;;;;1.20;0.60;;;8.70;99.90;;;;;;4223928;28;20203;-84
2023/11/10 04:50:47;;;;;;;1.13;0.80;;;8.60;99.90;;;;;;4221012;28;20210;-85
2023/11/10 04:52:51;;;;;;;1.53;1.03;;;8.60;99.90;;;;;;4220701;28;20301;-84
2023/11/10 04:54:54;;;;;;;1.80;0.90;;;8.60;99.90;;;;;;4222430;28;20832;-84
2023/11/10 04:56:56;;;;;;;1.30;0.80;;;8.60;99.90;;;;;;4222794;28;20231;-85
2023/11/10 04:58:58;;;;;;;1.37;1.00;;;8.60;99.90;;;;;;4217832;28;20649;-84
2023/11/10 05:01:00;;;;;;;1.73;0.90;;;8.70;99.90;;;;;;4218789;28;20235;-85
2023/11/10 05:03:03;;;;;;;1.77;0.70;;;8.50;99.90;;;;;;4218842;28;20202;-85
2023/11/10 05:05:07;;;;;;;1.83;0.90;;;8.60;99.90;;;;;;4220691;28;20229;-85
2023/11/10 05:07:09;;;;;;;2.87;0.80;;;8.50;99.90;;;;;;4218104;28;20238;-85
2023/11/10 05:09:13;;;;;;;1.80;0.80;;;8.50;99.90;;;;;;4220443;28;20220;-84
2023/11/10 05:11:15;;;;;;;2.00;0.80;;;8.50;99.90;;;;;;4222791;28;20740;-85
2023/11/10 05:13:17;;;;;;;1.40;0.80;;;8.50;99.90;;;;;;4217197;28;20203;-84
2023/11/10 05:15:19;;;;;;;1.77;1.00;;;8.80;99.90;;;;;;4223073;28;20309;-85
2023/11/10 05:17:22;;;;;;;1.57;1.00;;;8.50;99.90;;;;;;4217154;28;20208;-82
2023/11/10 05:19:26;;;;;;;2.03;0.70;;;8.50;99.90;;;;;;4220498;28;20213;-84
2023/11/10 05:21:29;;;;;;;2.20;0.80;;;8.70;99.90;;;;;;4218289;28;20320;-84
2023/11/10 05:23:31;;;;;;;1.00;0.70;;;8.40;99.90;;;;;;4217890;28;20203;-84
2023/11/10 05:25:33;;;;;;;3.37;0.97;;;8.40;99.90;;;;;;4218607;28;20272;-84
2023/11/10 05:27:35;;;;;;;2.03;1.00;;;8.40;99.90;;;;;;4225302;28;20239;-84
2023/11/10 05:29:37;;;;;;;1.90;1.23;;;8.40;99.90;;;;;;4227566;28;20202;-84
2023/11/10 05:31:39;;;;;;;2.80;1.40;;;8.40;99.90;;;;;;4222173;28;20676;-84
2023/11/10 05:33:41;;;;;;;2.13;0.90;;;8.40;99.90;;;;;;4226792;28;20206;-84
2023/11/10 05:35:43;;;;;;;0.90;0.70;;;8.40;99.90;;;;;;4224547;28;20288;-84
2023/11/10 05:37:45;;;;;;;1.00;0.80;;;8.40;99.90;;;;;;4229121;28;20292;-84
2023/11/10 05:39:47;;;;;;;1.70;0.90;;;8.40;99.90;;;;;;4222246;28;20212;-84
2023/11/10 05:41:50;;;;;;;0.93;0.80;;;8.40;99.90;;;;;;4222766;28;20207;-84
2023/11/10 05:43:52;;;;;;;1.30;0.80;;;8.40;99.90;;;;;;4223271;28;20205;-84
2023/11/10 05:45:54;;;;;;;0.97;0.80;;;8.70;99.90;;;;;;4225370;28;20257;-85
2023/11/10 05:47:56;;;;;;;1.40;0.83;;;8.40;99.90;;;;;;4222894;28;20215;-84
2023/11/10 05:49:58;;;;;;;1.77;0.70;;;8.40;99.90;;;;;;4224399;28;20217;-84
2023/11/10 05:52:00;;;;;;;3.00;0.90;;;8.40;99.90;;;;;;4222124;28;20197;-85
2023/11/10 05:54:06;;;;;;;2.50;0.80;;;8.40;99.90;;;;;;4222831;28;20238;-85
2023/11/10 05:56:09;;;;;;;0.77;0.60;;;8.50;99.90;;;;;;4220529;28;20206;-84
2023/11/10 05:58:12;;;;;;;2.13;0.70;;;8.40;99.90;;;;;;4222620;28;20860;-83
2023/11/10 06:00:16;;;;;;;0.70;0.53;;;8.40;99.90;;;;;;4224085;28;20214;-82
2023/11/10 06:02:18;;;;;;;0.70;0.70;;;8.40;99.90;;;;;;4222429;28;20235;-83
2023/11/10 06:04:20;;;;;;;1.00;0.80;;;8.40;99.90;;;;;;4221401;27;20292;-83
2023/11/10 06:06:24;;;;;;;2.33;0.90;;;8.40;99.90;;;;;;4224470;28;20625;-84
2023/11/10 06:08:26;;;;;;;2.40;1.07;;;8.40;99.90;;;;;;4224639;28;20210;-85
2023/11/10 06:10:28;;;;;;;5.53;2.20;;;8.40;99.90;;;;;;4225370;28;20199;-85
2023/11/10 06:12:30;;;;;;;5.67;2.80;;;8.40;99.90;;;;;;4225615;28;20678;-85
2023/11/10 06:14:33;;;;;;;2.30;1.27;;;8.30;99.90;;;;;;4219281;28;20643;-85
2023/11/10 06:16:35;;;;;;;1.47;0.80;;;8.30;99.90;;;;;;4217337;28;20200;-85
2023/11/10 06:18:37;;;;;;;1.13;0.90;;;8.70;99.90;;;;;;4225808;28;20622;-85
2023/11/10 06:20:39;;;;;;;1.37;1.00;;;8.40;99.90;;;;;;4223267;28;20211;-85
2023/11/10 06:22:42;;;;;;;2.30;1.37;;;8.60;99.90;;;;;;4224916;28;20255;-85
2023/11/10 06:24:44;;;;;;;3.50;0.80;;;8.40;99.90;;;;;;4228263;28;20237;-85
2023/11/10 06:26:46;;;;;;;0.97;0.67;;;8.40;99.90;;;;;;4222241;27;20787;-85
2023/11/10 06:28:48;;;;;;;2.67;0.73;;;8.40;99.90;;;;;;4220675;28;20218;-85
2023/11/10 06:30:50;;;;;;;1.30;0.83;;;8.40;99.90;;;;;;4218004;28;20215;-85
2023/11/10 06:32:52;;;;;;;2.50;0.80;;;8.70;99.90;;;;;;4221695;28;20280;-86
2023/11/10 06:34:54;;;;;;;1.43;0.70;;;8.90;99.90;;;;;;4222154;27;20222;-85
2023/11/10 06:36:56;;;;;;;4.67;1.60;;;8.50;99.90;;;;;;4222940;28;20199;-85
2023/11/10 06:38:59;;;;;;;5.13;2.80;;;8.50;99.90;;;;;;4225664;28;20201;-84
2023/11/10 06:41:03;;;;;;;4.60;2.53;;;8.50;99.90;;;;;;4221546;28;20206;-84
2023/11/10 06:43:07;;;;;;;1.87;1.00;;;8.50;99.90;;;;;;4226114;28;20259;-82
2023/11/10 06:45:09;;;;;;;0.93;0.73;;;8.60;99.90;;;;;;4227167;28;20222;-85
2023/11/10 06:47:13;;;;;;;7.13;1.17;;;8.60;99.90;;;;;;4222144;28;20257;-82
2023/11/10 06:49:15;;;;;;;1.97;0.73;;;8.50;99.90;;;;;;4224211;28;20226;-79
2023/11/10 06:51:17;;;;;;;1.53;0.97;;;8.50;99.90;;;;;;4224146;28;20190;-82
2023/11/10 06:53:19;;;;;;;3.13;1.23;;;8.50;99.90;;;;;;4224123;28;20199;-80
2023/11/10 06:55:26;;;;;;;2.23;0.90;;;8.50;99.90;;;;;;4218260;28;20284;-88
2023/11/10 06:57:28;;;;;;;3.33;1.20;;;8.40;99.90;;;;;;4222343;28;20245;-86
2023/11/10 06:59:32;;;;;;;1.50;0.80;;;8.40;99.90;;;;;;4221807;28;20672;-86
2023/11/10 07:01:37;;;;;;;2.63;1.00;;;8.60;99.90;;;;;;4216542;28;20214;-86
2023/11/10 07:03:42;;;;;;;0.83;0.60;;;8.10;99.90;;;;;;4220294;27;20205;-88
2023/11/10 07:05:43;;;;;;;1.53;0.90;;;8.40;99.90;;;;;;4218678;28;20241;-86
2023/11/10 07:07:45;;;;;;;3.13;1.37;;;8.40;99.90;;;;;;4228811;28;20221;-85
2023/11/10 07:09:49;;;;;;;2.37;1.40;;;8.40;99.90;;;;;;4226935;28;20223;-85
2023/11/10 07:11:51;;;;;;;5.37;1.70;;;8.40;99.90;;;;;;4222454;28;20217;-86
2023/11/10 07:13:52;;;;;;;2.70;1.20;;;8.40;99.90;;;;;;4220331;28;20212;-83
2023/11/10 07:16:01;;;;;;;3.00;1.40;;;8.50;99.90;;;;;;4221957;28;20305;-86
2023/11/10 07:18:03;;;;;;;2.00;1.10;;;8.50;99.90;;;;;;4216029;28;21187;-85
2023/11/10 07:20:09;;;;;;;1.63;1.10;;;8.50;99.90;;;;;;4219806;28;20196;-85
2023/11/10 07:22:12;;;;;;;2.00;0.93;;;8.50;99.90;;;;;;4219914;28;20221;-86
2023/11/10 07:24:14;;;;;;;1.90;1.10;;;8.50;99.90;;;;;;4213234;28;20217;-87
2023/11/10 07:26:19;;;;;;;2.27;0.77;;;8.70;99.90;;;;;;4219597;28;20234;-83
2023/11/10 07:28:22;;;;;;;1.50;0.60;;;8.50;99.90;;;;;;4220759;28;20289;-83
2023/11/10 07:30:24;;;;;;;2.47;0.63;;;8.60;99.90;;;;;;4217819;28;20207;-84
2023/11/10 07:32:27;;;;;;;2.07;1.00;;;8.60;99.90;;;;;;4220385;28;20554;-84
2023/11/10 07:34:29;;;;;;;1.33;0.50;;;8.60;99.90;;;;;;4221526;28;20227;-84
2023/11/10 07:36:36;;;;;;;1.03;0.67;;;8.60;99.90;;;;;;4225200;28;20645;-83
2023/11/10 07:38:39;;;;;;;1.47;0.60;;;8.60;99.90;;;;;;4214951;28;20636;-84
2023/11/10 07:40:41;;;;;;;1.43;0.60;;;8.60;99.90;;;;;;4227736;28;20206;-85
2023/11/10 07:42:44;;;;;;;1.80;0.93;;;8.70;99.90;;;;;;4229590;28;20189;-85
2023/11/10 07:44:46;;;;;;;2.83;0.90;;;8.70;99.90;;;;;;4240618;28;20211;-84
2023/11/10 07:46:48;;;;;;;1.00;0.60;;;8.80;99.90;;;;;;4235776;28;20288;-85
2023/11/10 07:48:50;;;;;;;1.03;0.60;;;9.00;99.90;;;;;;4238946;28;20223;-85
2023/11/10 07:51:03;;;;;;;3.77;0.80;;;8.80;99.90;;;;;;4241063;28;20219;-85
2023/11/10 07:53:07;;;;;;;1.73;0.67;;;8.80;99.90;;;;;;4239930;28;20207;-84
2023/11/10 07:55:10;;;;;;;1.40;0.90;;;8.90;99.90;;;;;;4246682;28;20230;-84
2023/11/10 07:57:13;;;;;;;1.80;0.70;;;8.90;99.90;;;;;;4238947;28;20213;-85
2023/11/10 07:59:15;;;;;;;1.40;0.80;;;8.90;99.90;;;;;;4230255;28;20211;-85
2023/11/10 08:01:18;;;;;;;1.00;0.70;;;9.00;99.90;;;;;;4232814;28;20195;-85
2023/11/10 08:03:20;;;;;;;3.20;0.90;;;9.00;99.90;;;;;;4231527;28;20203;-85
2023/11/10 08:05:26;;;;;;;2.03;0.90;;;9.00;99.90;;;;;;4236195;28;20231;-85
2023/11/10 08:07:27;;;;;;;4.33;0.80;;;9.00;99.90;;;;;;4231262;28;20254;-85
2023/11/10 08:09:33;;;;;;;1.40;0.90;;;8.90;99.90;;;;;;4225995;28;20687;-84
2023/11/10 08:11:35;;;;;;;2.33;0.90;;;9.10;99.90;;;;;;4227964;28;20295;-84
2023/11/10 08:13:37;;;;;;;2.27;0.90;;;9.10;99.90;;;;;;4224570;28;20206;-84
2023/11/10 08:15:39;;;;;;;4.60;1.20;;;9.10;99.90;;;;;;4222657;28;20266;-85
2023/11/10 08:17:41;;;;;;;1.23;0.80;;;9.00;99.90;;;;;;4223172;28;20200;-85
2023/11/10 08:19:44;;;;;;;1.60;0.80;;;9.10;99.90;;;;;;4220746;28;20219;-85
2023/11/10 08:21:48;;;;;;;1.97;0.80;;;9.20;99.90;;;;;;4223004;28;20569;-85
2023/11/10 08:23:50;;;;;;;1.07;0.70;;;9.00;99.90;;;;;;4217314;28;20209;-85
2023/11/10 08:25:54;;;;;;;2.20;0.70;;;9.20;99.90;;;;;;4223275;28;20229;-86
2023/11/10 08:27:56;;;;;;;1.87;0.70;;;9.10;99.90;;;;;;4218405;28;20216;-85
2023/11/10 08:29:57;;;;;;;1.70;0.70;;;9.20;99.90;;;;;;4218546;28;20257;-85
2023/11/10 08:31:59;;;;;;;4.97;2.43;;;9.20;99.90;;;;;;4222173;28;20202;-85
2023/11/10 08:34:01;;;;;;;2.87;1.40;;;9.60;99.90;;;;;;4216995;28;20278;-83
2023/11/10 08:36:03;;;;;;;2.03;0.90;;;9.20;99.90;;;;;;4220354;28;20231;-84
2023/11/10 08:38:05;;;;;;;3.83;0.87;;;9.20;99.90;;;;;;4217258;28;20207;-83
2023/11/10 08:40:11;;;;;;;2.20;0.93;;;9.10;99.90;;;;;;4217773;28;20318;-83
2023/11/10 08:42:15;;;;;;;1.63;0.90;;;8.90;99.90;;;;;;4218574;28;20233;-82
2023/11/10 08:44:18;;;;;;;5.13;0.90;;;9.00;99.90;;;;;;4224162;28;20647;-82
2023/11/10 08:46:20;;;;;;;2.57;1.10;;;8.90;99.90;;;;;;4225011;28;20701;-81
2023/11/10 08:48:22;;;;;;;1.53;0.87;;;8.80;99.90;;;;;;4227720;28;20215;-80
2023/11/10 08:50:25;;;;;;;2.83;0.90;;;8.80;99.90;;;;;;4227719;28;20576;-81
2023/11/10 08:52:28;;;;;;;3.13;0.87;;;8.80;99.90;;;;;;4226287;28;20264;-81
2023/11/10 08:54:30;;;;;;;4.53;0.90;;;8.80;99.90;;;;;;4220759;28;20786;-80
2023/11/10 08:56:32;;;;;;;2.93;0.90;;;8.70;99.90;;;;;;4230014;28;20214;-81
2023/11/10 08:58:36;;;;;;;3.17;0.77;;;8.80;99.90;;;;;;4228717;28;20196;-81
2023/11/10 09:00:38;;;;;;;1.80;0.83;;;8.80;99.90;;;;;;4235265;28;20536;-81
2023/11/10 09:02:43;;;;;;;1.23;0.70;;;8.80;99.90;;;;;;4227329;28;20256;-81
2023/11/10 09:04:48;;;;;;;3.17;0.87;;;8.80;99.90;;;;;;4227853;28;20282;-81
2023/11/10 09:06:54;;;;;;;2.63;0.90;;;8.90;99.90;;;;;;4232904;28;20263;-81
2023/11/10 09:08:57;;;;;;;2.13;0.80;;;8.90;99.90;;;;;;4231425;28;20202;-82
2023/11/10 09:10:59;;;;;;;2.77;0.90;;;9.00;99.90;;;;;;4232866;28;20220;-80
2023/11/10 09:13:01;;;;;;;1.60;0.90;;;9.00;99.90;;;;;;4229372;28;20210;-81
2023/11/10 09:15:05;;;;;;;2.27;0.90;;;9.00;99.90;;;;;;4227735;28;20239;-81
2023/11/10 09:17:07;;;;;;;0.70;0.70;;;8.70;99.90;;;;;;4228231;28;20217;-81
2023/11/10 09:19:09;;;;;;;0.97;0.60;;;9.10;99.90;;;;;;4224929;28;20639;-80
2023/11/10 09:21:12;;;;;;;1.80;0.77;;;9.20;99.90;;;;;;4223905;28;20209;-80
2023/11/10 09:23:14;;;;;;;2.00;0.50;;;9.20;99.90;;;;;;4225505;28;20916;-80
2023/11/10 09:25:20;;;;;;;1.07;0.60;;;9.20;99.90;;;;;;4219638;28;20221;-81
2023/11/10 09:27:25;;;;;;;2.40;0.80;;;9.20;99.90;;;;;;4222496;28;20219;-81
2023/11/10 09:29:27;;;;;;;5.27;1.23;;;9.20;99.90;;;;;;4221552;28;20274;-81
2023/11/10 09:31:30;;;;;;;3.57;0.77;;;9.20;99.90;;;;;;4226629;28;20289;-81
2023/11/10 09:33:38;;;;;;;1.47;0.60;;;9.30;99.90;;;;;;4224815;28;20480;-83
2023/11/10 09:35:41;;;;;;;1.73;0.63;;;9.20;99.90;;;;;;4223354;28;20241;-81
2023/11/10 09:37:46;;;;;;;0.90;0.50;;;9.20;99.90;;;;;;4222955;28;20208;-82
2023/11/10 09:39:48;;;;;;;1.97;0.80;;;9.20;99.90;;;;;;4223683;28;20281;-82
2023/11/10 09:42:06;;;;;;;0.87;0.47;;;9.60;99.90;;;;;;4222018;28;20668;-82
2023/11/10 09:44:11;;;;;;;1.27;0.70;;;9.10;99.90;;;;;;4225726;28;20195;-82
2023/11/10 09:46:15;;;;;;;1.27;0.60;;;9.10;99.90;;;;;;4220477;28;20206;-82
2023/11/10 09:48:23;;;;;;;0.97;0.53;;;9.10;99.90;;;;;;4225716;28;20228;-81
2023/11/10 09:50:28;;;;;;;2.43;0.70;;;9.10;99.90;;;;;;4223721;28;20736;-81
2023/11/10 09:52:34;;;;;;;6.20;0.60;;;9.20;99.90;;;;;;4228149;28;20209;-81
2023/11/10 09:54:41;;;;;;;2.10;0.50;;;9.10;99.90;;;;;;4224679;28;20225;-81
2023/11/10 09:56:44;;;;;;;0.63;0.50;;;9.00;99.90;;;;;;4227237;28;20748;-80
2023/11/10 09:58:47;;;;;;;1.67;0.50;;;9.00;99.90;;;;;;4228838;28;20327;-80
2023/11/10 10:00:50;;;;;;;0.70;0.43;;;9.00;99.90;;;;;;4219041;28;20216;-81
2023/11/10 10:05:17;;;;;;;0.63;0.50;;;8.90;99.90;;;;;;4216821;28;20229;-80
2023/11/10 10:07:19;;;;;;;0.87;0.60;;;8.90;99.90;;;;;;4220985;28;21160;-80
2023/11/10 10:09:22;;;;;;;2.30;0.60;;;8.90;99.90;;;;;;4222366;28;20239;-80
2023/11/10 10:11:24;;;;;;;1.07;0.50;;;8.80;99.90;;;;;;4225326;28;20674;-81
2023/11/10 10:13:27;;;;;;;0.50;0.30;;;8.80;99.90;;;;;;4228541;28;20293;-80
2023/11/10 10:15:32;;;;;;;1.70;0.40;;;8.70;99.90;;;;;;4226470;28;20265;-80
2023/11/10 10:17:37;;;;;;;0.80;0.60;;;8.80;99.90;;;;;;4223241;28;20285;-80
2023/11/10 10:19:39;;;;;;;0.60;0.30;;;9.00;99.90;;;;;;4228867;28;20210;-80
2023/11/10 10:21:45;;;;;;;1.17;0.50;;;8.80;99.90;;;;;;4223340;28;20207;-81
2023/11/10 10:23:49;;;;;;;0.60;0.40;;;8.80;99.90;;;;;;4223941;28;20209;-84
2023/11/10 10:25:55;;;;;;;0.87;0.40;;;8.80;99.90;;;;;;4228297;28;20227;-83
2023/11/10 10:27:57;;;;;;;1.57;0.40;;;8.80;99.90;;;;;;4225518;28;20207;-79
2023/11/10 10:29:59;;;;;;;1.47;0.40;;;8.80;99.90;;;;;;4222989;28;20538;-80
2023/11/10 10:32:01;;;;;;;0.50;0.50;;;8.80;99.90;;;;;;4224772;28;20218;-80
2023/11/10 10:34:04;;;;;;;1.87;0.50;;;8.90;99.90;;;;;;4222953;28;20206;-81
2023/11/10 10:36:07;;;;;;;0.40;0.30;;;8.80;99.90;;;;;;4226807;28;20289;-79
2023/11/10 10:38:10;;;;;;;0.57;0.40;;;8.80;99.90;;;;;;4230366;28;20324;-77
2023/11/10 10:40:15;;;;;;;1.57;0.40;;;8.80;99.90;;;;;;4233057;28;20197;-81
2023/11/10 10:42:19;;;;;;;0.47;0.40;;;8.90;99.90;;;;;;4233622;28;20203;-83
2023/11/10 10:44:21;;;;;;;0.87;0.60;;;8.90;99.90;;;;;;4235809;28;20216;-81
2023/11/10 10:46:23;;;;;;;1.77;0.33;;;8.90;99.90;;;;;;4226081;28;20615;-80
2023/11/10 10:48:31;;;;;;;1.90;0.60;;;9.00;99.90;;;;;;4227661;28;20249;-80
2023/11/10 10:50:37;;;;;;;0.60;0.30;;;9.00;99.90;;;;;;4233868;28;20462;-80